Buffalo Lake, Minnesota
Current Conditions -  °F | °C
As of 7:32 PM on Thursday 27 Nov 2014 (Local Time) from KHCD Reporting Station
Overcast Overcast  
Wind Chill: -8°   Ceiling: 9000
Heat Index:   Visibility: 10mi
Dew Point: -2°   Wind: 7mph
Humidity: 75%   Direction: 140°SE
Pressure: 30.3"   Gusts: NA
Location:  44.74°N, 94.62°W
Report Text: KHCD 280132Z AUTO 14006KT 10SM OVC090 M15/M19 A3030 RMK AO2 T11551191
Loading
Personal Weather Stations






























Interactive Weather Map New forecast layout! Learn more

10-Day Weather Forecast

Advertisements
Track Severe Weather on mobile